Latest Coastal Weather Observations for Rhyll

IDV60701

Issued at 5:51 pm EST Saturday 5 September 2015 (issued every 10 minutes, with the page automatically refreshed every 10 minutes)

About coastal observations | Map of coastal stations | Coastal observations for VIC | Marine services | Other Formats
Station Details ID: 086373 Name: RHYLL Lat: -38.46 Lon: 145.31 Height: 13.4 m
Data from the previous 72 hours. | See also: Recent months at Rhyll
Date/Time
EST
Temp

°C
Wind Pressure Rain
since 9am
mm
Weather Cloud Vis
km
Sea
Height
m
Swell
Dir
 
Speed
knots
Gust
knots
hPa Trend Height
m
Period
s
Dir
05/05:30pm 11.2 SSW 3 5 1022.8 - 0.0 - - - - - - -
05/05:00pm 11.9 SSW 4 7 1023.1 - 0.0 - - - - - - -
05/04:30pm 12.1 S 3 6 1022.9 - 0.0 - - - - - - -
05/04:00pm 12.2 SSW 5 7 1023.0 - 0.0 - - - - - - -
05/03:30pm 11.9 SSW 5 8 1023.3 - 0.0 - - - - - - -
05/03:00pm 13.1 SSW 5 9 1023.1 - 0.0 - - - - - - -
05/02:30pm 13.3 SSW 4 7 1023.2 - 0.0 - - - - - - -
05/02:00pm 12.5 SSW 5 9 1023.3 - 0.0 - - - - - - -
05/01:30pm 12.8 SSW 5 8 1023.4 - 0.0 - - - - - - -
05/01:00pm 12.7 SSW 4 7 1023.7 - 0.0 - - - - - - -
05/12:30pm 12.5 SSW 5 9 1024.2 - 0.0 - - - - - - -
05/12:00pm 13.6 NE 3 5 1024.5 - 0.0 - - - - - - -
05/11:30am 12.7 SSW 3 6 1024.7 - 0.0 - - - - - - -
05/11:00am 11.7 SSW 3 4 1025.0 - 0.0 - - - - - - -
05/10:30am 10.4 SSW 5 10 1025.1 - 0.0 - - - - - - -
05/10:00am 11.3 SSW 5 12 1025.1 - 0.0 - - - - - - -
05/09:30am 10.5 SSW 4 8 1025.2 - 0.0 - - - - - - -
05/09:00am 10.6 SSW 7 11 1025.2 - 0.6 Recent precip. - - - - - -
05/08:30am 10.1 SW 3 7 1025.2 - 0.6 - - - - - - -
05/08:00am 10.0 SW 5 9 1025.1 - 0.4 - - - - - - -
05/07:30am 9.7 W 2 4 1024.6 - 0.4 - - - - - - -
05/07:00am 9.4 WSW 4 9 1024.3 - 0.4 - - - - - - -
05/06:30am 9.2 W 3 5 1024.1 - 0.4 - - - - - - -
05/06:00am 9.3 W 4 7 1023.7 - 0.4 - - - - - - -
05/05:30am 9.6 W 3 5 1023.7 - 0.4 - - - - - - -
05/05:00am 9.6 WNW 3 6 1023.4 - 0.4 - - - - - - -
05/04:30am 9.5 WNW 3 4 1023.2 - 0.4 - - - - - - -
05/04:00am 9.6 W 2 4 1023.1 - 0.2 - - - - - - -
05/03:30am 9.7 W 4 7 1023.0 - 0.0 - - - - - - -
05/03:00am 9.9 W 4 7 1023.1 - 0.0 - - - - - - -
05/02:30am 10.1 W 4 7 1023.6 - 0.0 - - - - - - -
05/02:00am 10.1 WNW 3 5 1023.8 - 0.0 - - - - - - -
05/01:30am 10.1 WNW 4 8 1023.9 - 0.0 - - - - - - -
05/01:00am 10.0 WNW 4 7 1024.2 - 0.0 - - - - - - -
05/12:30am 10.1 W 3 5 1024.3 - 0.0 - - - - - - -
05/12:00am 10.3 W 3 5 1024.5 - 0.0 - - - - - - -
 
Date/Time
EST
Temp

°C
Wind Pressure Rain
since 9am
mm
Weather Cloud Vis
km
Sea
Height
m
Swell
Dir
 
Speed
knots
Gust
knots
hPa Trend Height
m
Period
s
Dir
04/11:30pm 10.2 W 3 5 1024.6 - 0.0 - - - - - - -
04/11:00pm 10.4 W 2 4 1024.9 - 0.0 - - - - - - -
04/10:30pm 10.2 WNW 3 5 1025.0 - 0.0 - - - - - - -
04/10:00pm 10.3 WNW 3 6 1025.1 - 0.0 - - - - - - -
04/09:30pm 10.1 W 3 5 1025.1 - 0.0 - - - - - - -
04/09:00pm 10.1 W 4 7 1025.0 - 0.0 - - - - - - -
04/08:30pm 10.6 WSW 4 6 1025.0 - 0.0 - - - - - - -
04/08:00pm 10.7 WSW 6 11 1024.8 - 0.0 - - - - - - -
04/07:30pm 10.7 WSW 6 12 1024.6 - 0.0 - - - - - - -
04/07:00pm 11.0 WSW 5 11 1024.7 - 0.0 - - - - - - -
04/06:30pm 11.1 W 4 10 1024.5 - 0.0 - - - - - - -
04/06:00pm 11.2 WSW 4 7 1024.3 - 0.0 - - - - - - -
04/05:30pm 11.3 WSW 5 8 1024.2 - 0.0 - - - - - - -
04/05:00pm 11.5 WSW 6 10 1024.1 - 0.0 - - - - - - -
04/04:30pm 11.5 WSW 6 11 1024.0 - 0.0 - - - - - - -
04/04:00pm 11.6 WSW 8 12 1023.9 - 0.0 - - - - - - -
04/03:30pm 11.9 WSW 7 11 1023.8 - 0.0 - - - - - - -
04/03:00pm 11.7 WSW 7 11 1023.8 - 0.0 - - - - - - -
04/02:30pm 12.1 WSW 7 12 1023.8 - 0.0 - - - - - - -
04/02:00pm 12.0 W 6 10 1023.9 - 0.0 - - - - - - -
04/01:30pm 11.9 WSW 7 12 1024.2 - 0.0 - - - - - - -
04/01:00pm 12.3 WSW 6 11 1024.3 - 0.0 - - - - - - -
04/12:30pm 13.3 WSW 4 8 1024.7 - 0.0 - - - - - - -
04/12:00pm 12.0 WSW 7 12 1025.1 - 0.0 - - - - - - -
04/11:30am 12.2 WSW 7 10 1025.3 - 0.0 - - - - - - -
04/11:00am 11.9 SW 5 11 1025.5 - 0.0 - - - - - - -
04/10:30am 11.3 SW 9 15 1025.5 - 0.0 - - - - - - -
04/10:00am 11.2 WSW 6 9 1025.5 - 0.0 - - - - - - -
04/09:30am 11.5 SW 6 11 1025.5 - 0.0 - - - - - - -
04/09:00am 11.1 SSW 5 8 1025.5 - 0.0 - - - - - - -
04/08:30am 10.5 SW 5 8 1025.4 - 0.0 - - - - - - -
04/08:00am 10.0 SW 3 5 1025.1 - 0.0 - - - - - - -
04/07:30am 9.9 SW 3 7 1025.0 - 0.0 - - - - - - -
04/07:00am 9.8 SSW 4 7 1024.7 - 0.0 - - - - - - -
04/06:30am 9.6 SSW 4 8 1024.4 - 0.0 - - - - - - -
04/06:00am 9.7 SSW 6 11 1024.2 - 0.0 - - - - - - -
04/05:30am 9.4 SW 3 5 1024.1 - 0.0 - - - - - - -
04/05:00am 9.7 SW 9 16 1023.8 - 0.0 - - - - - - -
04/04:30am 10.0 SSW 6 11 1023.4 - 0.0 - - - - - - -
04/04:00am 9.7 SW 5 7 1023.4 - 0.0 - - - - - - -
04/03:30am 9.7 SW 5 7 1023.4 - 0.0 - - - - - - -
04/03:00am 9.9 SW 6 10 1023.4 - 0.0 - - - - - - -
04/02:30am 10.0 SW 5 8 1023.2 - 0.0 - - - - - - -
04/02:00am 9.9 SW 4 6 1023.5 - 0.0 - - - - - - -
04/01:30am 9.8 WSW 4 7 1023.5 - 0.0 - - - - - - -
04/01:00am 9.8 SW 5 7 1023.5 - 0.0 - - - - - - -
04/12:30am 10.0 SW 5 10 1023.4 - 0.0 - - - - - - -
04/12:00am 10.0 WSW 5 11 1023.3 - 0.0 - - - - - - -
 
Date/Time
EST
Temp

°C
Wind Pressure Rain
since 9am
mm
Weather Cloud Vis
km
Sea
Height
m
Swell
Dir
 
Speed
knots
Gust
knots
hPa Trend Height
m
Period
s
Dir
03/11:30pm 10.1 SW 5 11 1023.1 - 0.0 - - - - - - -
03/11:00pm 10.1 SW 5 10 1023.1 - 0.0 - - - - - - -
03/10:30pm 10.2 SW 7 11 1023.0 - 0.0 - - - - - - -
03/10:00pm 10.0 SW 7 11 1022.6 - 0.0 - - - - - - -
03/09:30pm 9.8 SW 6 10 1022.4 - 0.0 - - - - - - -
03/09:00pm 10.0 SW 8 13 1021.9 - 0.0 - - - - - - -
03/08:30pm 9.8 SW 9 14 1021.5 - 0.0 - - - - - - -
03/08:00pm 9.8 SW 7 12 1021.4 - 0.0 - - - - - - -
03/07:30pm 10.0 SW 7 11 1021.1 - 0.0 - - - - - - -
03/07:00pm 10.4 SSW 9 16 1020.7 - 0.0 - - - - - - -
03/06:30pm 10.5 SSW 10 18 1020.2 - 0.0 - - - - - - -
03/06:00pm 10.7 SSW 9 17 1019.9 - 0.0 - - - - - - -
03/05:30pm 11.0 SSW 9 16 1019.4 - 0.0 - - - - - - -
03/05:00pm 11.6 SSW 9 17 1018.8 - 0.0 - - - - - - -
03/04:30pm 12.1 SSW 11 18 1018.2 - 0.0 - - - - - - -
03/04:00pm 12.6 SSW 11 20 1017.7 - 0.0 - - - - - - -
03/03:30pm 12.5 SSW 10 17 1017.4 - 0.0 - - - - - - -
03/03:00pm 12.7 SSW 13 21 1016.8 - 0.0 - - - - - - -
03/02:30pm 13.3 SSW 12 19 1016.1 - 0.0 - - - - - - -
03/02:00pm 13.2 SSW 11 18 1015.8 - 0.0 - - - - - - -
03/01:30pm 12.8 SSW 11 21 1015.7 - 0.0 - - - - - - -
03/01:00pm 13.2 SSW 11 17 1015.6 - 0.0 - - - - - - -
03/12:30pm 13.1 SSW 11 18 1015.4 - 0.0 - - - - - - -
03/12:00pm 13.3 SSW 10 17 1015.2 - 0.0 - - - - - - -
03/11:30am 13.2 SSW 9 14 1015.0 - 0.0 - - - - - - -
03/11:00am 12.7 SSW 9 15 1014.9 - 0.0 - - - - - - -
03/10:30am 12.5 SSW 10 15 1014.4 - 0.0 - - - - - - -
03/10:00am 12.7 S 10 19 1013.9 - 0.0 - - - - - - -
03/09:30am 12.8 S 9 16 1013.3 - 0.0 - - - - - - -
03/09:00am 12.5 SSW 9 15 1012.6 - 0.0 - - - - - - -
03/08:30am 12.3 SSW 7 11 1012.0 - 0.0 - - - - - - -
03/08:00am 12.0 SSW 8 13 1011.5 - 0.0 - - - - - - -
03/07:30am 11.4 SSW 6 8 1010.9 - 0.0 - - - - - - -
03/07:00am 11.2 SSW 5 7 1010.4 - 0.0 - - - - - - -
03/06:30am 11.4 S 4 8 1009.9 - 0.0 - - - - - - -
03/06:00am 11.7 S 4 6 1009.4 - 0.0 - - - - - - -
03/05:30am 11.8 SSE 3 5 1009.2 - 0.0 - - - - - - -
03/05:00am 11.9 SSE 6 7 1008.8 - 0.0 - - - - - - -
03/04:30am 12.0 SSE 8 10 1008.3 - 0.0 - - - - - - -
03/04:00am 11.6 SSE 9 13 1007.7 - 0.0 - - - - - - -
03/03:30am 11.8 S 7 15 1007.3 - 0.0 - - - - - - -
03/03:00am 12.1 SSE 8 11 1007.4 - 0.0 - - - - - - -
03/02:30am 12.4 S 5 8 1007.6 - 0.0 - - - - - - -
03/02:00am 12.6 S 6 9 1007.9 - 0.0 - - - - - - -
03/01:30am 12.3 SSW 4 6 1007.8 - 0.0 - - - - - - -
03/01:00am 12.1 SSW 3 5 1007.7 - 0.0 - - - - - - -
03/12:30am 11.9 SSW 4 7 1007.7 - 0.0 - - - - - - -
03/12:00am 11.8 SSW 4 6 1007.7 - 0.0 - - - - - - -
 
Date/Time
EST
Temp

°C
Wind Pressure Rain
since 9am
mm
Weather Cloud Vis
km
Sea
Height
m
Swell
Dir
 
Speed
knots
Gust
knots
hPa Trend Height
m
Period
s
Dir
02/11:30pm 11.8 SSW 3 4 1007.9 - 0.0 - - - - - - -
02/11:00pm 12.1 SSW 3 4 1008.3 - 0.0 - - - - - - -
02/10:30pm 12.0 CALM 0 0 1008.6 - 0.0 - - - - - - -
02/10:00pm 12.0 CALM 0 0 1008.9 - 0.0 - - - - - - -
02/09:30pm 12.4 CALM 0 2 1009.1 - 0.0 - - - - - - -
02/09:00pm 12.5 NE 1 2 1008.9 - 0.0 - - - - - - -
02/08:30pm 13.2 WSW 2 3 1008.7 - 0.0 - - - - - - -
02/08:00pm 13.3 W 3 4 1008.5 - 0.0 - - - - - - -
02/07:30pm 13.5 WSW 4 6 1008.5 - 0.0 - - - - - - -
02/07:00pm 13.4 WSW 5 9 1008.4 - 0.0 - - - - - - -
02/06:30pm 13.7 SSW 2 4 1008.3 - 0.0 - - - - - - -
02/06:00pm 13.7 S 3 6 1007.8 - 0.0 - - - - - - -

Other Formats:

Comma delimited format used in spreadsheet applications
http://www.bom.gov.au/fwo/IDV60701/IDV60701.94892.axf

JavaScript Object Notation format (JSON) in row-major order
http://www.bom.gov.au/fwo/IDV60701/IDV60701.94892.json